Time;durP1;ratioP1;P1;durP2;ratioP2;P2;SDS_P1;SDS_P2;PMS_P1;PMS_P2;Temp;Humidity;BMP_temperature;BMP_pressure;BME280_temperature;BME280_humidity;BME280_pressure;Samples;Min_cycle;Max_cycle;Signal;HPM_P1;HPM_P2
2023/09/16 00:03:47;;;;;;;9.60;8.60;;;;;;;16.02;100.00;101339.79;101639;1289;602685;-49
2023/09/16 00:06:14;;;;;;;9.90;7.10;;;;;;;16.00;100.00;101356.16;104200;1264;59292;-49
2023/09/16 00:08:42;;;;;;;8.00;7.30;;;;;;;15.99;100.00;101333.08;103870;1266;60808;-50
2023/09/16 00:11:10;;;;;;;8.30;7.10;;;;;;;15.97;100.00;101325.39;104347;1267;72698;-50
2023/09/16 00:13:37;;;;;;;6.40;5.90;;;;;;;15.96;100.00;101317.98;108238;1267;68494;-51
2023/09/16 00:16:04;;;;;;;8.10;6.20;;;;;;;15.97;100.00;101313.26;108185;1261;178505;-51
2023/09/16 00:18:31;;;;;;;9.90;5.40;;;;;;;15.97;100.00;101310.70;104891;1266;61940;-50
2023/09/16 00:20:58;;;;;;;5.50;5.00;;;;;;;15.98;100.00;101310.48;105344;1254;61071;-50
2023/09/16 00:23:24;;;;;;;6.90;6.30;;;;;;;15.98;100.00;101302.86;104683;1257;59452;-51
2023/09/16 00:25:52;;;;;;;6.40;4.50;;;;;;;15.97;100.00;101305.48;104799;1254;59259;-51
2023/09/16 00:28:18;;;;;;;9.90;5.90;;;;;;;15.93;100.00;101300.23;105727;1259;71127;-48
2023/09/16 00:30:45;;;;;;;5.10;4.20;;;;;;;15.88;100.00;101299.72;108967;1254;61651;-50
2023/09/16 00:33:12;;;;;;;7.60;4.70;;;;;;;15.86;100.00;101304.48;105392;1254;60078;-50
2023/09/16 00:35:38;;;;;;;8.00;5.10;;;;;;;15.87;100.00;101307.52;104550;1254;59732;-50
2023/09/16 00:38:05;;;;;;;8.20;4.60;;;;;;;15.85;100.00;101302.35;104878;1254;59932;-51
2023/09/16 00:40:31;;;;;;;6.70;4.70;;;;;;;15.86;100.00;101304.67;104490;1257;59772;-50
2023/09/16 00:42:58;;;;;;;6.00;5.30;;;;;;;15.87;100.00;101305.33;104461;1256;59887;-52
2023/09/16 00:45:25;;;;;;;6.90;5.50;;;;;;;15.87;100.00;101305.34;104608;1260;59660;-50
2023/09/16 00:47:51;;;;;;;6.00;4.80;;;;;;;15.88;100.00;101310.75;104623;1263;59574;-49
2023/09/16 00:50:18;;;;;;;7.10;5.80;;;;;;;15.87;100.00;101309.87;105240;1259;67379;-49
2023/09/16 00:52:55;;;;;;;6.30;4.80;;;;;;;15.88;100.00;101315.44;105565;1257;73117;-50
2023/09/16 00:55:22;;;;;;;6.20;5.40;;;;;;;15.90;100.00;101320.61;104522;1260;62759;-50
2023/09/16 00:57:50;;;;;;;5.50;5.00;;;;;;;15.91;100.00;101318.42;105662;1260;61039;-51
2023/09/16 01:00:17;;;;;;;4.90;4.40;;;;;;;15.91;100.00;101319.31;105232;1260;73487;-49
2023/09/16 01:02:44;;;;;;;7.80;5.80;;;;;;;15.92;100.00;101321.41;104835;1263;66713;-51
2023/09/16 01:05:14;;;;;;;5.80;5.30;;;;;;;15.93;100.00;101322.81;104839;1260;73326;-49
2023/09/16 01:07:41;;;;;;;6.10;4.90;;;;;;;15.93;100.00;101327.91;105332;1262;62459;-51
2023/09/16 01:10:11;;;;;;;5.60;4.70;;;;;;;15.94;100.00;101329.48;105007;1257;60338;-49
2023/09/16 01:12:38;;;;;;;5.40;5.00;;;;;;;15.96;100.00;101329.94;104794;1257;73494;-51
2023/09/16 01:15:06;;;;;;;6.50;5.50;;;;;;;15.98;100.00;101335.13;104837;1260;67521;-50
2023/09/16 01:17:47;;;;;;;5.40;4.70;;;;;;;15.98;100.00;101341.83;104934;1260;73830;-50
2023/09/16 01:20:15;;;;;;;5.70;4.80;;;;;;;15.97;100.00;101343.48;106102;1260;62041;-49
2023/09/16 01:22:46;;;;;;;5.70;4.70;;;;;;;15.96;100.00;101340.62;105286;1261;60810;-50
2023/09/16 01:25:14;;;;;;;5.90;5.40;;;;;;;15.97;100.00;101347.81;108878;1257;71540;-50
2023/09/16 01:27:42;;;;;;;8.10;4.90;;;;;;;16.00;100.00;101348.39;104874;1258;66155;-50
2023/09/16 01:30:09;;;;;;;5.20;4.70;;;;;;;16.00;100.00;101348.41;106437;1262;72453;-50
2023/09/16 01:33:05;;;;;;;6.60;6.00;;;;;;;16.01;100.00;101351.94;105389;1260;63587;-47
2023/09/16 01:35:32;;;;;;;10.00;7.60;;;;;;;16.05;100.00;101353.82;104862;1260;60854;-49
2023/09/16 01:37:59;;;;;;;10.30;9.30;;;;;;;16.07;100.00;101352.10;104788;1263;73775;-50
2023/09/16 01:40:25;;;;;;;16.60;13.30;;;;;;;16.08;100.00;101351.11;104682;1264;59726;-49
2023/09/16 01:42:51;;;;;;;16.20;14.50;;;;;;;16.09;100.00;101359.02;104731;1257;59906;-49
2023/09/16 01:45:18;;;;;;;16.30;14.70;;;;;;;16.07;100.00;101362.36;104573;1257;59669;-48
2023/09/16 01:47:47;;;;;;;22.00;17.20;;;;;;;16.05;100.00;101361.75;104525;1257;59564;-49
2023/09/16 01:50:14;;;;;;;17.60;15.90;;;;;;;16.04;100.00;101369.40;105582;1260;71912;-49
2023/09/16 01:52:40;;;;;;;20.40;17.60;;;;;;;16.01;100.00;101369.91;104634;1257;68135;-51
2023/09/16 01:55:07;;;;;;;20.70;18.10;;;;;;;15.98;100.00;101368.60;104509;1257;59669;-50
2023/09/16 01:57:34;;;;;;;24.30;19.10;;;;;;;15.95;100.00;101372.17;108744;1257;60483;-49
2023/09/16 02:00:01;;;;;;;20.80;17.30;;;;;;;15.93;100.00;101378.02;108091;1263;60591;-50
2023/09/16 02:02:28;;;;;;;23.40;20.20;;;;;;;15.89;100.00;101377.69;104891;1256;73335;-49
2023/09/16 02:04:55;;;;;;;23.50;19.30;;;;;;;15.87;100.00;101377.02;104831;1257;67644;-49
2023/09/16 02:07:22;;;;;;;24.60;17.20;;;;;;;15.87;100.00;101379.39;104561;1257;72969;-49
2023/09/16 02:09:51;;;;;;;21.80;18.70;;;;;;;15.86;100.00;101381.77;104739;1257;60933;-51
2023/09/16 02:12:19;;;;;;;21.60;18.50;;;;;;;15.86;100.00;101381.43;104824;1258;60637;-49
2023/09/16 02:14:49;;;;;;;20.50;18.30;;;;;;;15.87;100.00;101380.84;104900;1260;72389;-49
2023/09/16 02:17:16;;;;;;;23.60;19.00;;;;;;;15.90;100.00;101381.80;104678;1264;66831;-49
2023/09/16 02:19:42;;;;;;;23.00;20.50;;;;;;;15.92;100.00;101384.05;104756;1273;73256;-51
2023/09/16 02:22:09;;;;;;;21.50;18.20;;;;;;;15.90;100.00;101382.73;104544;1263;61431;-50
2023/09/16 02:24:36;;;;;;;28.50;21.10;;;;;;;15.89;100.00;101388.17;104719;1259;59736;-49
2023/09/16 02:27:04;;;;;;;27.80;19.50;;;;;;;15.89;100.00;101386.92;104690;1260;73565;-50
2023/09/16 02:29:34;;;;;;;23.10;19.10;;;;;;;15.88;100.00;101387.85;105043;1260;67618;-51
2023/09/16 02:32:00;;;;;;;22.00;17.00;;;;;;;15.90;100.00;101392.66;104780;1263;72900;-51
2023/09/16 02:34:28;;;;;;;24.90;19.30;;;;;;;15.93;100.00;101392.17;105443;1260;61941;-54
2023/09/16 02:36:54;;;;;;;22.60;19.00;;;;;;;15.96;100.00;101396.41;105040;1257;59547;-48
2023/09/16 02:39:22;;;;;;;22.30;17.00;;;;;;;15.98;100.00;101397.77;104923;1262;73622;-48
2023/09/16 02:41:48;;;;;;;20.20;15.80;;;;;;;16.00;100.00;101400.91;104923;1259;60102;-49
2023/09/16 02:44:15;;;;;;;23.00;16.40;;;;;;;16.00;100.00;101399.10;104910;1267;73221;-49
2023/09/16 02:46:41;;;;;;;20.90;15.70;;;;;;;16.01;100.00;101405.37;104928;1262;61777;-48
2023/09/16 02:49:08;;;;;;;16.40;14.40;;;;;;;16.03;100.00;101411.27;105081;1260;59975;-49
2023/09/16 02:51:35;;;;;;;24.20;15.40;;;;;;;16.04;100.00;101407.45;104936;1260;73935;-49
2023/09/16 02:54:01;;;;;;;21.40;16.90;;;;;;;16.05;100.00;101409.76;105171;1269;67953;-50
2023/09/16 02:56:28;;;;;;;23.00;15.80;;;;;;;16.05;100.00;101412.65;104987;1260;73192;-49
2023/09/16 02:58:55;;;;;;;19.70;15.80;;;;;;;16.05;100.00;101419.52;105013;1261;62450;-50
2023/09/16 03:01:22;;;;;;;20.60;15.60;;;;;;;16.05;100.00;101417.33;105016;1263;60496;-49
2023/09/16 03:03:48;;;;;;;22.50;16.70;;;;;;;16.06;100.00;101424.20;104798;1263;72657;-49
2023/09/16 03:06:15;;;;;;;23.00;16.50;;;;;;;16.03;100.00;101426.48;106880;1259;68276;-49
2023/09/16 03:08:41;;;;;;;20.50;15.30;;;;;;;16.01;100.00;101426.96;104956;1260;60025;-49
2023/09/16 03:11:09;;;;;;;19.30;15.70;;;;;;;16.00;100.00;101430.05;105073;1260;60450;-48
2023/09/16 03:13:36;;;;;;;19.60;14.40;;;;;;;16.01;100.00;101435.61;105195;1260;59763;-49
2023/09/16 03:16:20;;;;;;;23.30;15.80;;;;;;;16.02;100.00;101438.32;104684;1263;59778;-48
2023/09/16 03:18:50;;;;;;;18.40;14.40;;;;;;;16.03;100.00;101445.86;105480;1263;66530;-47
2023/09/16 03:21:18;;;;;;;19.10;15.50;;;;;;;16.05;100.00;101445.80;105816;1263;71543;-49
2023/09/16 03:23:45;;;;;;;23.20;15.20;;;;;;;16.05;100.00;101446.86;105712;1263;63941;-48
2023/09/16 03:26:12;;;;;;;21.70;16.20;;;;;;;16.07;100.00;101451.50;105176;1261;60604;-48
2023/09/16 03:28:45;;;;;;;19.30;13.40;;;;;;;16.09;100.00;101460.63;104944;1263;73564;-49
2023/09/16 03:31:12;;;;;;;17.40;13.00;;;;;;;16.10;100.00;101467.64;104967;1263;68223;-49
2023/09/16 03:33:39;;;;;;;18.80;15.00;;;;;;;16.11;100.00;101463.96;105126;1263;73260;-49
2023/09/16 03:36:06;;;;;;;17.60;14.10;;;;;;;16.13;100.00;101470.06;104804;1262;61751;-49
2023/09/16 03:38:33;;;;;;;15.10;13.50;;;;;;;16.14;100.00;101471.80;104912;1257;61249;-50
2023/09/16 03:41:02;;;;;;;19.00;13.20;;;;;;;16.16;100.00;101476.08;105011;1260;74434;-48
2023/09/16 03:43:30;;;;;;;17.70;13.50;;;;;;;16.17;100.00;101479.09;105524;1260;67481;-47
2023/09/16 03:45:56;;;;;;;15.60;13.20;;;;;;;16.17;100.00;101485.77;105020;1263;73059;-50
2023/09/16 03:48:23;;;;;;;20.60;14.80;;;;;;;16.18;100.00;101486.66;105189;1260;62272;-49
2023/09/16 03:50:50;;;;;;;21.40;13.30;;;;;;;16.19;100.00;101491.13;104831;1263;59817;-49
2023/09/16 03:53:18;;;;;;;18.40;12.30;;;;;;;16.19;100.00;101495.47;104695;1259;73488;-49
2023/09/16 03:55:58;;;;;;;14.50;12.10;;;;;;;16.21;100.00;101498.65;105227;1264;68427;-47
2023/09/16 03:58:24;;;;;;;12.30;11.10;;;;;;;16.20;100.00;101497.96;104835;1260;59876;-49
2023/09/16 04:00:51;;;;;;;14.00;12.00;;;;;;;16.19;100.00;101500.94;105316;1256;59736;-50
2023/09/16 04:03:17;;;;;;;13.20;11.50;;;;;;;16.15;100.00;101503.45;104843;1259;60133;-48
2023/09/16 04:05:44;;;;;;;12.40;10.80;;;;;;;16.14;100.00;101506.93;104781;1262;59724;-47
2023/09/16 04:08:10;;;;;;;13.20;10.40;;;;;;;16.15;100.00;101507.46;104689;1263;66721;-48
2023/09/16 04:10:37;;;;;;;12.30;11.00;;;;;;;16.15;100.00;101511.83;104646;1267;60581;-49
2023/09/16 04:13:04;;;;;;;13.10;10.00;;;;;;;16.15;100.00;101511.83;104721;1263;60496;-49
2023/09/16 04:15:30;;;;;;;13.40;10.50;;;;;;;16.15;100.00;101514.52;104692;1260;60460;-47
2023/09/16 04:17:57;;;;;;;11.90;9.90;;;;;;;16.15;100.00;101518.14;105064;1260;74246;-48
2023/09/16 04:20:24;;;;;;;10.70;9.70;;;;;;;16.15;100.00;101525.38;106042;1260;67998;-50
2023/09/16 04:22:50;;;;;;;13.50;10.60;;;;;;;16.15;100.00;101527.72;104820;1263;73199;-49
2023/09/16 04:25:17;;;;;;;11.80;10.30;;;;;;;16.17;100.00;101531.81;104380;1262;60654;-49
2023/09/16 04:27:44;;;;;;;11.80;9.70;;;;;;;16.19;100.00;101534.80;104417;1267;60649;-49
2023/09/16 04:30:11;;;;;;;11.40;10.00;;;;;;;16.20;100.00;101538.02;104822;1259;74094;-49
2023/09/16 04:32:40;;;;;;;8.60;7.80;;;;;;;16.21;100.00;101546.83;104905;1260;66614;-48
2023/09/16 04:35:07;;;;;;;10.70;9.60;;;;;;;16.22;100.00;101546.98;105076;1263;73013;-48
2023/09/16 04:37:36;;;;;;;11.90;10.90;;;;;;;16.22;100.00;101551.33;104802;1257;62280;-48
2023/09/16 04:40:12;;;;;;;10.70;9.60;;;;;;;16.18;100.00;101552.23;108601;1257;58786;-49
2023/09/16 04:42:39;;;;;;;11.10;9.40;;;;;;;16.15;100.00;101549.11;104996;1258;71957;-49
2023/09/16 04:45:09;;;;;;;11.20;9.60;;;;;;;16.15;100.00;101551.27;104754;1262;68094;-50
2023/09/16 04:47:36;;;;;;;13.40;9.90;;;;;;;16.16;100.00;101558.84;104942;1260;73214;-49
2023/09/16 04:50:03;;;;;;;9.70;8.90;;;;;;;16.17;100.00;101558.04;104884;1258;62606;-49
2023/09/16 04:52:33;;;;;;;10.30;9.30;;;;;;;16.19;100.00;101561.59;105328;1260;60473;-49
2023/09/16 04:55:00;;;;;;;9.80;8.90;;;;;;;16.21;100.00;101564.21;105025;1260;74207;-50
2023/09/16 04:57:27;;;;;;;9.20;8.50;;;;;;;16.25;100.00;101570.79;104994;1262;68095;-49
2023/09/16 04:59:56;;;;;;;10.60;9.60;;;;;;;16.28;100.00;101572.45;105154;1261;72668;-50
2023/09/16 05:02:22;;;;;;;9.40;8.50;;;;;;;16.31;100.00;101576.30;104916;1260;60450;-50
2023/09/16 05:04:49;;;;;;;10.40;9.50;;;;;;;16.35;100.00;101580.31;105247;1262;60519;-49
2023/09/16 05:07:18;;;;;;;8.80;8.10;;;;;;;16.38;100.00;101585.25;104684;1256;74389;-48
2023/09/16 05:09:45;;;;;;;11.90;8.20;;;;;;;16.41;100.00;101587.80;104936;1257;67917;-48
2023/09/16 05:12:11;;;;;;;9.70;8.80;;;;;;;16.44;100.00;101592.23;105047;1262;73090;-50
2023/09/16 05:14:38;;;;;;;10.80;9.50;;;;;;;16.46;100.00;101597.41;104943;1257;62972;-48
2023/09/16 05:17:04;;;;;;;9.70;8.80;;;;;;;16.47;100.00;101598.98;104672;1257;60364;-49
2023/09/16 05:19:31;;;;;;;9.50;8.70;;;;;;;16.47;100.00;101604.41;104735;1257;72935;-48
2023/09/16 05:21:59;;;;;;;9.70;8.90;;;;;;;16.49;100.00;101608.34;104490;1266;67091;-49
2023/09/16 05:24:30;;;;;;;9.50;8.80;;;;;;;16.49;100.00;101610.48;108948;1260;72946;-48
2023/09/16 05:26:57;;;;;;;9.80;8.70;;;;;;;16.50;100.00;101616.56;108628;1256;60528;-48
2023/09/16 05:29:23;;;;;;;8.90;8.00;;;;;;;16.52;100.00;101614.86;108561;1256;60063;-51
2023/09/16 05:31:51;;;;;;;8.40;7.60;;;;;;;16.54;100.00;101620.03;105414;1258;72401;-49
2023/09/16 05:34:18;;;;;;;8.70;7.90;;;;;;;16.56;100.00;101623.77;105368;1257;67723;-49
2023/09/16 05:36:46;;;;;;;8.00;7.50;;;;;;;16.59;100.00;101631.79;105010;1257;73243;-50
2023/09/16 05:39:12;;;;;;;8.30;7.60;;;;;;;16.61;100.00;101630.24;104540;1262;61991;-48
2023/09/16 05:41:40;;;;;;;9.40;8.60;;;;;;;16.65;100.00;101631.94;104962;1260;60574;-49
2023/09/16 05:44:06;;;;;;;8.70;7.90;;;;;;;16.69;100.00;101637.01;104790;1256;74010;-48
2023/09/16 05:46:33;;;;;;;9.10;8.40;;;;;;;16.72;100.00;101640.13;104623;1256;67789;-49
2023/09/16 05:49:09;;;;;;;7.70;7.00;;;;;;;16.77;100.00;101642.66;104773;1262;72981;-49
2023/09/16 05:51:36;;;;;;;7.60;6.90;;;;;;;16.80;100.00;101647.41;106397;1260;61551;-50
2023/09/16 05:54:04;;;;;;;8.10;7.50;;;;;;;16.84;100.00;101652.33;104379;1260;61234;-49
2023/09/16 05:56:32;;;;;;;8.30;7.60;;;;;;;16.87;100.00;101653.27;105017;1257;74290;-49
2023/09/16 05:58:59;;;;;;;7.50;6.90;;;;;;;16.91;100.00;101653.83;105111;1257;67708;-49
2023/09/16 06:01:26;;;;;;;7.20;6.80;;;;;;;16.94;100.00;101661.44;104738;1261;72872;-49
2023/09/16 06:03:53;;;;;;;7.30;6.70;;;;;;;16.97;100.00;101662.22;104617;1263;61671;-48
2023/09/16 06:06:20;;;;;;;6.40;5.90;;;;;;;17.01;100.00;101667.84;104754;1257;60469;-49
2023/09/16 06:08:47;;;;;;;5.60;5.20;;;;;;;17.04;100.00;101671.52;105861;1258;74246;-48
2023/09/16 06:11:14;;;;;;;6.20;5.80;;;;;;;17.08;100.00;101676.63;105339;1258;67319;-48
2023/09/16 06:13:42;;;;;;;8.90;5.80;;;;;;;17.11;100.00;101681.73;104807;1257;71599;-48
2023/09/16 06:16:09;;;;;;;6.70;6.20;;;;;;;17.13;100.00;101687.45;104958;1260;61665;-49
2023/09/16 06:18:36;;;;;;;6.00;5.70;;;;;;;17.16;100.00;101696.95;104707;1260;60363;-48
2023/09/16 06:21:03;;;;;;;10.40;7.00;;;;;;;17.18;100.00;101698.81;104840;1264;74330;-49
2023/09/16 06:23:29;;;;;;;7.10;6.60;;;;;;;17.22;100.00;101704.29;104741;1259;60441;-48
2023/09/16 06:25:57;;;;;;;8.20;7.50;;;;;;;17.25;100.00;101707.04;104632;1257;73092;-49
2023/09/16 06:28:27;;;;;;;7.10;6.60;;;;;;;17.27;100.00;101710.02;104651;1257;61945;-49
2023/09/16 06:30:54;;;;;;;6.50;6.10;;;;;;;17.29;100.00;101717.02;104152;1262;60784;-49
2023/09/16 06:33:21;;;;;;;8.40;6.90;;;;;;;17.32;100.00;101723.06;104865;1257;72191;-49
2023/09/16 06:35:48;;;;;;;7.40;6.80;;;;;;;17.34;100.00;101725.87;104684;1260;66596;-49
2023/09/16 06:38:14;;;;;;;7.30;6.50;;;;;;;17.38;100.00;101736.02;104928;1260;60433;-49
2023/09/16 06:40:41;;;;;;;7.10;6.50;;;;;;;17.42;100.00;101740.57;108669;1256;61950;-50
2023/09/16 06:43:08;;;;;;;7.20;6.70;;;;;;;17.46;100.00;101750.16;107542;1257;58807;-50
2023/09/16 06:45:38;;;;;;;7.90;6.60;;;;;;;17.51;100.00;101755.08;104725;1260;74260;-50
2023/09/16 06:48:05;;;;;;;6.10;5.70;;;;;;;17.54;100.00;101762.17;106327;1257;67248;-49
2023/09/16 06:50:32;;;;;;;6.40;6.00;;;;;;;17.58;100.00;101768.89;105194;1260;73771;-50
2023/09/16 06:53:00;;;;;;;5.20;4.90;;;;;;;17.62;100.00;101775.40;105030;1257;61716;-50
2023/09/16 06:55:27;;;;;;;5.60;5.10;;;;;;;17.67;100.00;101780.86;105034;1254;60453;-49
2023/09/16 06:57:54;;;;;;;5.50;5.00;;;;;;;17.70;100.00;101780.30;104891;1254;60523;-48
2023/09/16 07:00:20;;;;;;;5.10;4.80;;;;;;;17.72;100.00;101786.05;105214;1254;67973;-49
2023/09/16 07:02:47;;;;;;;4.90;4.50;;;;;;;17.71;100.00;101788.09;105053;1257;73142;-50
2023/09/16 07:05:14;;;;;;;5.20;4.80;;;;;;;17.72;100.00;101792.06;105548;1257;60688;-49
2023/09/16 07:07:41;;;;;;;5.60;5.20;;;;;;;17.74;100.00;101797.02;105059;1256;60530;-51
2023/09/16 07:10:10;;;;;;;5.10;4.70;;;;;;;17.79;100.00;101803.16;108379;1254;74343;-48
2023/09/16 07:12:37;;;;;;;4.70;4.40;;;;;;;17.85;100.00;101813.10;105277;1253;68432;-47
2023/09/16 07:15:03;;;;;;;5.40;4.70;;;;;;;17.88;100.00;101816.75;105349;1255;73554;-48
2023/09/16 07:17:33;;;;;;;5.20;4.90;;;;;;;17.92;100.00;101822.75;105639;1257;60450;-49
2023/09/16 07:20:00;;;;;;;5.70;5.30;;;;;;;17.94;100.00;101828.45;105296;1254;60415;-50
2023/09/16 07:22:26;;;;;;;6.30;5.80;;;;;;;17.96;100.00;101834.36;105253;1257;60453;-49
2023/09/16 07:24:53;;;;;;;6.40;6.00;;;;;;;17.96;100.00;101836.73;105178;1256;60454;-48
2023/09/16 07:27:19;;;;;;;5.70;5.40;;;;;;;17.94;100.00;101842.43;104930;1256;60597;-47
2023/09/16 07:29:46;;;;;;;6.80;6.40;;;;;;;17.92;100.00;101847.60;105255;1254;60533;-48
2023/09/16 07:32:12;;;;;;;6.50;5.60;;;;;;;17.91;100.00;101851.86;105042;1254;60534;-48
2023/09/16 07:34:39;;;;;;;5.00;4.50;;;;;;;17.91;100.00;101858.73;105093;1256;60559;-49
2023/09/16 07:37:05;;;;;;;6.20;5.70;;;;;;;17.92;100.00;101857.98;105148;1256;60348;-48
2023/09/16 07:39:32;;;;;;;6.20;5.70;;;;;;;17.93;100.00;101862.84;105009;1254;60418;-49
2023/09/16 07:41:58;;;;;;;5.40;5.00;;;;;;;17.94;100.00;101864.78;105067;1254;60565;-49
2023/09/16 07:44:26;;;;;;;5.40;5.00;;;;;;;17.97;100.00;101870.46;104920;1257;60428;-50
2023/09/16 07:46:53;;;;;;;6.00;5.20;;;;;;;17.99;100.00;101874.73;105129;1253;74258;-48
2023/09/16 07:49:19;;;;;;;6.90;5.40;;;;;;;18.02;100.00;101879.14;105803;1254;68007;-49
2023/09/16 07:51:46;;;;;;;4.90;4.50;;;;;;;18.04;100.00;101884.08;105069;1257;60588;-49
2023/09/16 07:57:13;;;;;;;5.90;5.60;;;;;;;18.11;100.00;102026.06;101582;1292;600785;-47
2023/09/16 07:59:40;;;;;;;6.40;6.00;;;;;;;18.13;100.00;102073.75;104153;1267;59379;-45
2023/09/16 08:02:07;;;;;;;5.60;5.30;;;;;;;18.14;100.00;102054.25;104202;1267;59806;-47
2023/09/16 08:04:35;;;;;;;6.90;5.20;;;;;;;18.14;100.00;102043.35;108118;1269;72090;-47
2023/09/16 08:07:03;;;;;;;4.80;4.40;;;;;;;18.14;100.00;102032.44;108199;1267;68049;-49
2023/09/16 08:09:30;;;;;;;3.60;3.30;;;;;;;18.16;100.00;102024.58;108166;1267;71393;-48
2023/09/16 08:11:59;;;;;;;4.00;3.70;;;;;;;18.19;100.00;102020.11;108557;1260;171697;-48
2023/09/16 08:14:26;;;;;;;2.80;2.60;;;;;;;18.23;100.00;102021.55;108819;1256;58798;-49
2023/09/16 08:16:57;;;;;;;2.90;2.70;;;;;;;18.27;100.00;102017.36;108773;1256;70950;-49
2023/09/16 08:19:24;;;;;;;2.10;2.00;;;;;;;18.32;100.00;102018.76;108725;1256;67899;-48
2023/09/16 08:21:52;;;;;;;2.40;2.20;;;;;;;18.39;100.00;102023.00;108656;1257;72441;-48
2023/09/16 08:24:19;;;;;;;2.20;2.00;;;;;;;18.45;100.00;102024.73;105724;1257;60590;-47
2023/09/16 08:26:46;;;;;;;3.10;2.70;;;;;;;18.50;100.00;102029.74;104701;1262;59865;-47
2023/09/16 08:29:14;;;;;;;2.20;2.10;;;;;;;18.56;100.00;102037.34;107403;1258;71483;-47
2023/09/16 08:31:41;;;;;;;4.60;3.00;;;;;;;18.60;100.00;102040.11;104873;1257;68085;-48
2023/09/16 08:34:09;;;;;;;2.70;2.60;;;;;;;18.63;100.00;102043.04;104878;1259;72412;-49
2023/09/16 08:36:36;;;;;;;2.80;2.70;;;;;;;18.64;100.00;102046.81;105215;1257;59525;-49
2023/09/16 08:39:03;;;;;;;4.20;4.00;;;;;;;18.62;100.00;102048.18;105019;1257;59685;-48
2023/09/16 08:41:36;;;;;;;3.10;2.90;;;;;;;18.61;100.00;102053.51;104823;1263;73008;-47
2023/09/16 08:44:04;;;;;;;3.40;3.20;;;;;;;18.62;100.00;102058.17;104613;1263;67807;-49
2023/09/16 08:46:33;;;;;;;3.20;2.90;;;;;;;18.66;100.00;102064.55;104760;1261;73724;-48
2023/09/16 08:49:01;;;;;;;3.70;3.40;;;;;;;18.70;100.00;102069.45;107838;1262;61685;-49
2023/09/16 08:51:29;;;;;;;3.30;3.00;;;;;;;18.73;100.00;102074.93;104673;1257;60007;-49
2023/09/16 08:53:57;;;;;;;3.00;2.80;;;;;;;18.76;100.00;102076.62;104813;1257;72087;-48
2023/09/16 08:56:24;;;;;;;2.90;2.70;;;;;;;18.79;100.00;102080.12;104811;1262;68859;-48
2023/09/16 08:58:53;;;;;;;3.20;3.00;;;;;;;18.82;100.00;102086.88;104498;1264;71708;-49
2023/09/16 09:01:21;;;;;;;3.90;2.90;;;;;;;18.86;100.00;102093.82;104648;1258;59586;-49
2023/09/16 09:03:48;;;;;;;3.10;3.00;;;;;;;18.89;100.00;102098.40;108625;1256;60031;-49
2023/09/16 09:06:16;;;;;;;3.10;2.90;;;;;;;18.90;100.00;102106.31;108733;1257;71777;-51
2023/09/16 09:09:00;;;;;;;3.10;3.00;;;;;;;18.90;100.00;102110.35;108653;1256;66650;-50
2023/09/16 09:11:31;;;;;;;3.70;3.50;;;;;;;18.89;100.00;102108.95;107216;1257;72659;-48
2023/09/16 09:13:59;;;;;;;3.90;3.60;;;;;;;18.88;100.00;102109.69;104650;1262;59747;-47
2023/09/16 09:16:27;;;;;;;3.70;2.60;;;;;;;18.88;100.00;102111.33;104654;1257;59999;-49
2023/09/16 09:18:57;;;;;;;2.90;2.60;;;;;;;18.89;100.00;102116.94;104901;1257;73079;-48
2023/09/16 09:21:25;;;;;;;3.90;3.60;;;;;;;18.88;100.00;102121.92;104615;1262;68349;-48
2023/09/16 09:23:52;;;;;;;2.40;2.30;;;;;;;18.88;100.00;102124.98;105009;1257;72480;-49
2023/09/16 09:26:20;;;;;;;3.30;3.10;;;;;;;18.89;100.00;102129.66;104562;1258;61727;-48
2023/09/16 09:28:47;;;;;;;3.40;3.20;;;;;;;18.90;100.00;102130.91;104678;1262;59935;-48
2023/09/16 09:31:15;;;;;;;4.30;4.00;;;;;;;18.92;100.00;102134.67;107108;1257;73489;-48
2023/09/16 09:33:44;;;;;;;4.80;4.50;;;;;;;18.92;100.00;102136.46;105062;1257;66701;-49
2023/09/16 09:36:13;;;;;;;4.40;4.00;;;;;;;18.92;100.00;102138.85;106418;1262;73032;-49
2023/09/16 09:38:42;;;;;;;4.20;3.90;;;;;;;18.89;100.00;102142.42;105722;1258;60218;-48
2023/09/16 09:41:09;;;;;;;5.40;5.00;;;;;;;18.86;100.00;102138.73;105256;1258;60183;-49
2023/09/16 09:43:37;;;;;;;4.30;3.90;;;;;;;18.84;100.00;102136.84;104734;1257;72256;-49
2023/09/16 09:46:04;;;;;;;4.20;3.80;;;;;;;18.81;100.00;102138.21;104741;1263;67899;-48
2023/09/16 09:48:32;;;;;;;6.80;3.30;;;;;;;18.79;100.00;102137.58;104590;1260;71467;-49
2023/09/16 09:50:59;;;;;;;4.50;4.10;;;;;;;18.80;100.00;102139.58;104654;1262;60990;-47
2023/09/16 09:53:28;;;;;;;2.40;2.30;;;;;;;18.81;100.00;102141.67;104482;1263;59626;-48
2023/09/16 09:55:55;;;;;;;4.10;3.60;;;;;;;18.85;100.00;102146.98;104579;1266;70815;-48
2023/09/16 09:58:24;;;;;;;4.10;3.90;;;;;;;18.86;100.00;102151.68;104536;1260;67864;-48
2023/09/16 10:00:51;;;;;;;5.60;4.60;;;;;;;18.90;100.00;102154.54;105140;1260;72437;-49
2023/09/16 10:03:22;;;;;;;4.10;3.70;;;;;;;19.00;100.00;102158.14;104408;1263;60039;-48
2023/09/16 10:05:50;;;;;;;4.40;4.10;;;;;;;19.06;100.00;102159.86;104881;1258;60005;-48
2023/09/16 10:08:17;;;;;;;5.00;4.60;;;;;;;19.07;100.00;102162.51;104566;1266;73033;-49
2023/09/16 10:10:48;;;;;;;4.00;3.70;;;;;;;19.03;100.00;102159.63;104522;1259;66280;-49
2023/09/16 10:13:15;;;;;;;4.90;4.30;;;;;;;19.03;100.00;102159.80;104322;1266;72660;-48
2023/09/16 10:15:43;;;;;;;3.20;3.00;;;;;;;19.03;100.00;102159.61;105654;1266;61651;-49
2023/09/16 10:18:11;;;;;;;3.20;3.00;;;;;;;19.04;100.00;102159.76;104640;1260;59766;-47
2023/09/16 10:20:43;;;;;;;2.70;2.50;;;;;;;19.06;100.00;102161.67;104410;1261;73457;-48
2023/09/16 10:23:10;;;;;;;5.10;3.30;;;;;;;19.05;100.00;102164.84;105071;1260;65322;-48
2023/09/16 10:25:38;;;;;;;4.40;3.20;;;;;;;19.07;100.00;102165.07;104704;1261;72490;-47
2023/09/16 10:28:08;;;;;;;4.70;3.40;;;;;;;19.08;100.00;102164.27;104628;1258;63332;-49
2023/09/16 10:30:36;;;;;;;4.50;4.20;;;;;;;19.08;100.00;102161.77;104700;1263;59750;-49
2023/09/16 10:33:04;;;;;;;5.20;4.80;;;;;;;19.07;100.00;102161.44;104541;1265;70844;-48
2023/09/16 10:35:33;;;;;;;4.70;4.20;;;;;;;19.10;100.00;102165.31;106207;1260;67611;-48
2023/09/16 10:38:01;;;;;;;5.00;4.60;;;;;;;19.14;100.00;102164.38;104603;1263;70717;-49
2023/09/16 10:40:28;;;;;;;5.20;4.80;;;;;;;19.17;100.00;102168.77;104744;1258;61679;-48
2023/09/16 10:42:56;;;;;;;4.60;4.20;;;;;;;19.14;100.00;102172.39;104789;1263;59897;-49
2023/09/16 10:45:24;;;;;;;3.70;3.40;;;;;;;19.17;100.00;102174.64;104616;1263;73784;-48
2023/09/16 10:47:53;;;;;;;3.80;3.40;;;;;;;19.19;100.00;102180.88;104551;1267;67744;-48
2023/09/16 10:50:29;;;;;;;4.30;4.10;;;;;;;19.22;100.00;102182.94;104437;1260;71676;-49
2023/09/16 10:53:12;;;;;;;4.30;3.90;;;;;;;19.23;100.00;102183.23;104669;1266;60814;-48
2023/09/16 10:56:04;;;;;;;3.90;3.70;;;;;;;19.20;100.00;102187.23;104521;1263;59790;-50
2023/09/16 10:58:41;;;;;;;4.40;4.00;;;;;;;19.22;100.00;102192.02;104542;1261;73020;-49
2023/09/16 11:01:09;;;;;;;5.10;4.20;;;;;;;19.27;100.00;102194.56;105873;1263;66450;-50
2023/09/16 11:03:39;;;;;;;6.20;4.00;;;;;;;19.29;100.00;102193.94;107340;1257;70740;-49
2023/09/16 11:06:07;;;;;;;3.70;3.50;;;;;;;19.30;100.00;102195.89;104438;1263;60605;-49
2023/09/16 11:08:34;;;;;;;4.80;4.40;;;;;;;19.30;100.00;102196.25;104266;1265;61904;-49
2023/09/16 11:11:01;;;;;;;5.50;3.90;;;;;;;19.29;100.00;102198.83;104519;1257;71783;-49
2023/09/16 11:13:29;;;;;;;4.40;3.70;;;;;;;19.28;100.00;102197.23;104639;1257;66313;-50